Time;durP1;ratioP1;P1;durP2;ratioP2;P2;SDS_P1;SDS_P2;PMS_P1;PMS_P2;Temp;Humidity;BMP_temperature;BMP_pressure;BME280_temperature;BME280_humidity;BME280_pressure;Samples;Min_cycle;Max_cycle;Signal;HPM_P1;HPM_P2
2023/04/21 00:00:07;;;;;;;10.48;9.02;;;;;;;;;;4985156;28;20105;-74
2023/04/21 00:02:38;;;;;;;10.30;8.40;;;;;;;;;;4981646;28;20031;-74
2023/04/21 00:05:05;;;;;;;11.32;7.60;;;;;;;;;;4986468;28;20022;-73
2023/04/21 00:07:32;;;;;;;11.20;8.07;;;;;;;;;;4981440;28;20054;-76
2023/04/21 00:09:59;;;;;;;11.23;8.95;;;;;;;;;;4984674;28;20042;-73
2023/04/21 00:12:25;;;;;;;11.57;9.13;;;;;;;;;;4982476;28;20046;-76
2023/04/21 00:14:51;;;;;;;11.10;8.10;;;;;;;;;;4980807;28;20015;-74
2023/04/21 00:17:17;;;;;;;11.82;9.48;;;;;;;;;;4983213;28;20046;-74
2023/04/21 00:19:44;;;;;;;14.27;9.70;;;;;;;;;;4984672;28;20050;-74
2023/04/21 00:22:13;;;;;;;15.80;9.75;;;;;;;;;;4981632;28;20022;-74
2023/04/21 00:24:39;;;;;;;16.45;9.55;;;;;;;;;;4978669;28;20030;-74
2023/04/21 00:27:06;;;;;;;12.93;10.52;;;;;;;;;;4983403;28;20115;-74
2023/04/21 00:29:32;;;;;;;16.88;11.15;;;;;;;;;;4967496;28;20450;-74
2023/04/21 00:32:00;;;;;;;12.80;10.05;;;;;;;;;;4984500;28;20054;-76
2023/04/21 00:34:27;;;;;;;16.17;8.70;;;;;;;;;;4982891;28;20552;-74
2023/04/21 00:36:53;;;;;;;11.27;7.47;;;;;;;;;;4990364;28;20034;-73
2023/04/21 00:39:19;;;;;;;12.32;8.55;;;;;;;;;;4983741;28;20075;-73
2023/04/21 00:41:45;;;;;;;15.00;9.40;;;;;;;;;;4984905;28;20045;-74
2023/04/21 00:44:12;;;;;;;15.98;9.55;;;;;;;;;;4982875;28;20085;-74
2023/04/21 00:46:38;;;;;;;14.02;9.50;;;;;;;;;;4985602;28;20030;-73
2023/04/21 00:49:05;;;;;;;13.10;8.07;;;;;;;;;;4989698;28;20113;-74
2023/04/21 00:51:33;;;;;;;12.55;8.15;;;;;;;;;;4986363;28;20022;-74
2023/04/21 00:54:00;;;;;;;13.07;8.25;;;;;;;;;;4986462;28;20042;-74
2023/04/21 00:56:27;;;;;;;10.68;7.82;;;;;;;;;;4989638;28;20042;-74
2023/04/21 00:58:54;;;;;;;13.60;8.32;;;;;;;;;;4983417;28;20031;-74
2023/04/21 01:01:21;;;;;;;11.95;8.15;;;;;;;;;;4989770;28;20027;-74
2023/04/21 01:03:47;;;;;;;13.65;6.22;;;;;;;;;;4986853;28;20038;-75
2023/04/21 01:06:13;;;;;;;11.38;6.10;;;;;;;;;;4989896;28;20053;-73
2023/04/21 01:08:40;;;;;;;7.40;5.38;;;;;;;;;;4985214;28;20049;-74
2023/04/21 01:11:10;;;;;;;5.60;4.88;;;;;;;;;;4988434;28;20038;-74
2023/04/21 01:13:36;;;;;;;11.13;4.93;;;;;;;;;;4987833;28;20030;-74
2023/04/21 01:16:02;;;;;;;9.35;5.18;;;;;;;;;;4990089;28;20510;-74
2023/04/21 01:18:29;;;;;;;7.65;5.05;;;;;;;;;;4985070;28;20645;-74
2023/04/21 01:20:57;;;;;;;6.60;4.60;;;;;;;;;;4989580;28;20202;-74
2023/04/21 01:23:23;;;;;;;6.82;4.63;;;;;;;;;;4966647;28;20061;-78
2023/04/21 01:25:53;;;;;;;10.18;4.60;;;;;;;;;;4988860;28;20062;-74
2023/04/21 01:28:22;;;;;;;8.77;4.60;;;;;;;;;;4986586;28;20046;-74
2023/04/21 01:30:49;;;;;;;9.40;4.60;;;;;;;;;;4988002;28;20046;-75
2023/04/21 01:33:15;;;;;;;8.52;5.25;;;;;;;;;;4985094;28;20026;-75
2023/04/21 01:35:42;;;;;;;8.35;4.47;;;;;;;;;;4986239;28;20450;-75
2023/04/21 01:38:08;;;;;;;7.38;4.68;;;;;;;;;;4982581;28;20023;-74
2023/04/21 01:40:34;;;;;;;6.90;4.60;;;;;;;;;;4984984;28;20054;-74
2023/04/21 01:43:02;;;;;;;8.30;3.95;;;;;;;;;;4969086;28;20364;-74
2023/04/21 01:45:29;;;;;;;5.40;4.35;;;;;;;;;;4988997;28;20045;-74
2023/04/21 01:47:55;;;;;;;7.30;4.05;;;;;;;;;;4984179;28;20069;-73
2023/04/21 01:50:21;;;;;;;10.38;3.97;;;;;;;;;;4989358;28;20109;-74
2023/04/21 01:52:47;;;;;;;5.40;4.22;;;;;;;;;;4986272;28;20052;-75
2023/04/21 01:55:13;;;;;;;5.75;3.83;;;;;;;;;;4988033;28;20033;-74
2023/04/21 01:57:40;;;;;;;6.22;4.00;;;;;;;;;;4988026;28;20022;-74
2023/04/21 02:00:08;;;;;;;6.18;3.90;;;;;;;;;;4987360;28;20073;-76
2023/04/21 02:02:34;;;;;;;5.78;4.63;;;;;;;;;;4988363;28;20015;-77
2023/04/21 02:05:00;;;;;;;7.75;4.03;;;;;;;;;;4981009;28;20112;-75
2023/04/21 02:07:26;;;;;;;6.53;4.07;;;;;;;;;;4987112;28;20580;-74
2023/04/21 02:09:52;;;;;;;6.25;3.70;;;;;;;;;;4987037;28;20130;-74
2023/04/21 02:12:19;;;;;;;6.53;3.45;;;;;;;;;;4986707;28;20097;-81
2023/04/21 02:14:46;;;;;;;8.00;5.00;;;;;;;;;;4987241;28;20045;-73
2023/04/21 02:17:13;;;;;;;7.43;4.30;;;;;;;;;;4982519;28;20557;-79
2023/04/21 02:19:39;;;;;;;8.32;4.35;;;;;;;;;;4985810;28;20058;-74
2023/04/21 02:22:07;;;;;;;5.88;4.40;;;;;;;;;;4986792;28;20022;-74
2023/04/21 02:24:34;;;;;;;9.05;4.53;;;;;;;;;;4984746;28;20029;-75
2023/04/21 02:27:02;;;;;;;8.77;4.07;;;;;;;;;;4984238;28;20400;-75
2023/04/21 02:29:28;;;;;;;9.23;3.83;;;;;;;;;;4987533;28;20038;-74
2023/04/21 02:31:54;;;;;;;8.70;3.97;;;;;;;;;;4986485;28;20053;-75
2023/04/21 02:34:21;;;;;;;5.78;4.05;;;;;;;;;;4984553;28;20474;-83
2023/04/21 02:36:47;;;;;;;4.70;3.53;;;;;;;;;;4985455;28;20351;-77
2023/04/21 02:39:13;;;;;;;8.30;3.78;;;;;;;;;;4968243;28;20372;-74
2023/04/21 02:41:39;;;;;;;4.38;3.25;;;;;;;;;;4988411;28;20106;-74
2023/04/21 02:44:06;;;;;;;4.00;3.00;;;;;;;;;;4985085;28;20026;-82
2023/04/21 02:46:32;;;;;;;4.25;2.88;;;;;;;;;;4987716;28;20037;-74
2023/04/21 02:48:58;;;;;;;4.32;3.33;;;;;;;;;;4984922;28;20161;-76
2023/04/21 02:51:24;;;;;;;4.78;2.83;;;;;;;;;;4988032;28;20444;-79
2023/04/21 02:53:50;;;;;;;4.72;2.50;;;;;;;;;;4964247;28;21687;-74
2023/04/21 02:56:17;;;;;;;5.57;2.97;;;;;;;;;;4987736;28;20098;-79
2023/04/21 02:58:43;;;;;;;5.28;2.78;;;;;;;;;;4981539;28;20411;-75
2023/04/21 03:01:09;;;;;;;4.40;3.10;;;;;;;;;;4986566;28;20494;-75
2023/04/21 03:03:36;;;;;;;5.00;3.03;;;;;;;;;;4985038;28;20526;-77
2023/04/21 03:06:03;;;;;;;3.35;2.67;;;;;;;;;;4987091;28;20443;-75
2023/04/21 03:08:29;;;;;;;4.68;2.80;;;;;;;;;;4967665;28;20042;-77
2023/04/21 03:10:56;;;;;;;4.88;3.15;;;;;;;;;;4985638;28;20034;-80
2023/04/21 03:13:23;;;;;;;3.78;3.20;;;;;;;;;;4972208;28;20033;-78
2023/04/21 03:15:49;;;;;;;6.10;3.55;;;;;;;;;;4986390;28;20120;-75
2023/04/21 03:18:16;;;;;;;4.65;3.60;;;;;;;;;;4980407;28;20027;-80
2023/04/21 03:20:42;;;;;;;6.43;4.03;;;;;;;;;;4983317;28;20045;-75
2023/04/21 03:23:08;;;;;;;9.60;4.43;;;;;;;;;;4983280;28;20115;-79
2023/04/21 03:25:35;;;;;;;5.75;3.97;;;;;;;;;;4984540;28;20030;-75
2023/04/21 03:28:01;;;;;;;5.68;4.20;;;;;;;;;;4979577;28;20023;-77
2023/04/21 03:30:27;;;;;;;9.00;3.80;;;;;;;;;;4985206;28;20034;-78
2023/04/21 03:32:57;;;;;;;3.95;3.53;;;;;;;;;;4978788;28;20646;-79
2023/04/21 03:35:24;;;;;;;6.30;3.97;;;;;;;;;;4984252;28;20117;-75
2023/04/21 03:37:50;;;;;;;10.23;4.25;;;;;;;;;;4984467;28;20109;-74
2023/04/21 03:40:16;;;;;;;5.90;3.55;;;;;;;;;;4985006;28;20031;-75
2023/04/21 03:42:42;;;;;;;8.35;3.90;;;;;;;;;;4978384;28;20086;-74
2023/04/21 03:45:09;;;;;;;6.45;4.28;;;;;;;;;;4982147;28;20038;-75
2023/04/21 03:47:36;;;;;;;6.53;4.45;;;;;;;;;;4984725;28;20046;-74
2023/04/21 03:50:05;;;;;;;7.35;4.38;;;;;;;;;;4984480;28;20014;-74
2023/04/21 03:52:32;;;;;;;6.97;4.35;;;;;;;;;;4983818;28;20022;-75
2023/04/21 03:54:58;;;;;;;6.93;4.47;;;;;;;;;;4982600;28;20263;-78
2023/04/21 03:57:24;;;;;;;7.72;4.95;;;;;;;;;;4983307;28;20022;-75
2023/04/21 03:59:51;;;;;;;8.88;4.40;;;;;;;;;;4983143;28;20467;-75
2023/04/21 04:02:17;;;;;;;6.05;4.30;;;;;;;;;;4982646;28;20022;-76
2023/04/21 04:04:43;;;;;;;7.25;4.75;;;;;;;;;;4986458;28;20108;-75
2023/04/21 04:07:09;;;;;;;7.32;4.85;;;;;;;;;;4982798;28;20443;-74
2023/04/21 04:09:35;;;;;;;8.82;4.70;;;;;;;;;;4985240;28;20121;-74
2023/04/21 04:12:02;;;;;;;7.57;4.40;;;;;;;;;;4981921;28;20120;-74
2023/04/21 04:14:28;;;;;;;9.20;5.00;;;;;;;;;;4981438;28;20093;-78
2023/04/21 04:16:54;;;;;;;7.30;4.50;;;;;;;;;;4982142;28;20113;-74
2023/04/21 04:19:20;;;;;;;6.30;4.57;;;;;;;;;;4978154;28;20074;-74
2023/04/21 04:21:47;;;;;;;12.70;5.43;;;;;;;;;;4981284;28;20029;-74
2023/04/21 04:24:14;;;;;;;7.90;4.75;;;;;;;;;;4977539;28;20109;-75
2023/04/21 04:26:41;;;;;;;6.72;5.10;;;;;;;;;;4981071;28;20026;-74
2023/04/21 04:29:09;;;;;;;8.30;4.22;;;;;;;;;;4983953;28;20117;-75
2023/04/21 04:31:35;;;;;;;5.90;4.60;;;;;;;;;;4983425;28;20029;-81
2023/04/21 04:34:02;;;;;;;7.53;4.25;;;;;;;;;;4983221;28;20378;-75
2023/04/21 04:36:28;;;;;;;7.95;4.55;;;;;;;;;;4981130;28;20421;-75
2023/04/21 04:38:55;;;;;;;7.85;4.53;;;;;;;;;;4987205;28;20026;-77
2023/04/21 04:41:21;;;;;;;7.82;4.90;;;;;;;;;;4983542;28;20035;-74
2023/04/21 04:43:48;;;;;;;10.48;5.47;;;;;;;;;;4976347;28;20023;-79
2023/04/21 04:46:14;;;;;;;9.75;6.13;;;;;;;;;;4982179;28;20022;-74
2023/04/21 04:48:40;;;;;;;9.55;5.47;;;;;;;;;;4981749;28;20501;-74
2023/04/21 04:51:06;;;;;;;8.07;4.82;;;;;;;;;;4980754;28;20034;-74
2023/04/21 04:53:32;;;;;;;6.95;4.70;;;;;;;;;;4981429;28;20675;-81
2023/04/21 04:55:59;;;;;;;9.93;3.80;;;;;;;;;;4982669;28;20645;-75
2023/04/21 04:58:25;;;;;;;4.05;3.17;;;;;;;;;;4976687;28;20042;-81
2023/04/21 05:00:52;;;;;;;5.60;2.85;;;;;;;;;;4978374;28;20030;-81
2023/04/21 05:03:18;;;;;;;3.58;2.90;;;;;;;;;;4980474;28;20113;-85
2023/04/21 05:05:45;;;;;;;5.53;3.10;;;;;;;;;;4980967;28;20426;-79
2023/04/21 05:08:11;;;;;;;5.07;3.60;;;;;;;;;;4980386;28;20030;-80
2023/04/21 05:10:37;;;;;;;6.63;4.10;;;;;;;;;;4981634;28;20026;-76
2023/04/21 05:13:03;;;;;;;5.35;4.00;;;;;;;;;;4958184;28;20026;-79
2023/04/21 05:15:29;;;;;;;4.95;3.05;;;;;;;;;;4977651;28;20028;-78
2023/04/21 05:17:56;;;;;;;6.57;3.22;;;;;;;;;;4980536;28;20022;-79
2023/04/21 05:20:22;;;;;;;4.90;3.67;;;;;;;;;;4980734;28;20186;-78
2023/04/21 05:22:48;;;;;;;5.32;3.35;;;;;;;;;;4978807;28;20027;-81
2023/04/21 05:25:15;;;;;;;6.35;3.67;;;;;;;;;;4962378;28;20022;-82
2023/04/21 05:27:41;;;;;;;7.18;4.03;;;;;;;;;;4979911;28;20073;-78
2023/04/21 05:30:08;;;;;;;5.65;3.78;;;;;;;;;;4979478;28;20033;-77
2023/04/21 05:32:35;;;;;;;8.15;3.60;;;;;;;;;;4981480;28;20063;-77
2023/04/21 05:35:01;;;;;;;12.23;4.75;;;;;;;;;;4981573;28;20407;-79
2023/04/21 05:37:27;;;;;;;9.27;5.47;;;;;;;;;;4963698;28;20033;-77
2023/04/21 05:39:54;;;;;;;8.23;5.00;;;;;;;;;;4983344;28;20110;-77
2023/04/21 05:42:20;;;;;;;7.68;5.20;;;;;;;;;;4984407;28;20105;-78
2023/04/21 05:44:47;;;;;;;7.97;5.25;;;;;;;;;;4982235;28;20096;-78
2023/04/21 05:47:13;;;;;;;7.18;4.90;;;;;;;;;;4984544;28;20023;-78
2023/04/21 05:49:39;;;;;;;8.27;4.65;;;;;;;;;;4982848;28;20089;-77
2023/04/21 05:52:09;;;;;;;6.10;4.80;;;;;;;;;;4985503;28;20541;-76
2023/04/21 05:54:35;;;;;;;7.50;5.50;;;;;;;;;;4982283;28;20494;-75
2023/04/21 05:57:01;;;;;;;8.27;5.97;;;;;;;;;;4984091;28;20029;-80
2023/04/21 05:59:27;;;;;;;14.98;8.55;;;;;;;;;;4982001;28;20030;-79
2023/04/21 06:01:54;;;;;;;13.43;9.82;;;;;;;;;;4984499;28;20130;-74
2023/04/21 06:04:20;;;;;;;15.68;9.43;;;;;;;;;;4976414;28;20072;-78
2023/04/21 06:06:46;;;;;;;11.90;9.18;;;;;;;;;;4983755;28;20022;-73
2023/04/21 06:12:21;;;;;;;11.23;8.52;;;;;;;;;;4918454;28;20041;-95
2023/04/21 06:17:33;;;;;;;8.05;4.80;;;;;;;;;;5003383;28;20026;-96
2023/04/21 06:20:03;;;;;;;7.85;4.38;;;;;;;;;;4999587;28;20026;-96
2023/04/21 06:22:31;;;;;;;8.88;4.78;;;;;;;;;;4999488;28;20476;-95
2023/04/21 06:25:00;;;;;;;4.95;4.32;;;;;;;;;;4999243;28;20026;-96
2023/04/21 06:27:26;;;;;;;6.03;4.47;;;;;;;;;;4999461;28;20029;-95
2023/04/21 06:29:58;;;;;;;4.75;4.03;;;;;;;;;;4999520;28;20022;-95
2023/04/21 06:32:24;;;;;;;6.30;4.22;;;;;;;;;;4999286;28;20112;-96
2023/04/21 06:34:50;;;;;;;5.63;3.90;;;;;;;;;;4999563;28;20056;-95
2023/04/21 06:37:17;;;;;;;7.40;5.05;;;;;;;;;;4999284;28;20384;-96
2023/04/21 06:39:43;;;;;;;8.32;4.55;;;;;;;;;;4999537;28;20068;-96
2023/04/21 06:42:11;;;;;;;8.25;4.10;;;;;;;;;;4999689;28;20379;-95
2023/04/21 06:44:37;;;;;;;4.20;3.78;;;;;;;;;;4999038;28;20029;-95
2023/04/21 06:47:04;;;;;;;5.22;4.70;;;;;;;;;;4999097;28;20053;-95
2023/04/21 06:49:33;;;;;;;14.82;11.88;;;;;;;;;;4998593;28;20515;-95
2023/04/21 06:52:01;;;;;;;6.65;4.95;;;;;;;;;;4998428;28;20033;-95
2023/04/21 06:54:35;;;;;;;8.02;5.32;;;;;;;;;;4998954;28;20026;-95
2023/04/21 06:57:01;;;;;;;9.18;5.32;;;;;;;;;;4998876;28;20052;-94
2023/04/21 06:59:28;;;;;;;8.95;6.53;;;;;;;;;;4998861;28;20173;-96
2023/04/21 07:01:54;;;;;;;18.63;12.80;;;;;;;;;;4999234;28;20029;-96
2023/04/21 07:04:20;;;;;;;14.70;11.35;;;;;;;;;;4998653;28;20388;-95
2023/04/21 07:06:48;;;;;;;17.70;12.18;;;;;;;;;;4998873;28;20021;-95
2023/04/21 07:09:14;;;;;;;12.80;11.52;;;;;;;;;;4998710;28;20092;-95
2023/04/21 07:11:40;;;;;;;10.95;8.93;;;;;;;;;;4998647;28;20104;-95
2023/04/21 07:14:08;;;;;;;8.80;7.32;;;;;;;;;;4998579;28;20476;-95
2023/04/21 07:16:35;;;;;;;8.43;5.13;;;;;;;;;;4999169;28;20026;-95
2023/04/21 07:19:01;;;;;;;7.35;4.57;;;;;;;;;;4998434;28;20025;-95
2023/04/21 07:21:34;;;;;;;6.53;4.20;;;;;;;;;;4998389;28;20056;-95
2023/04/21 07:24:01;;;;;;;6.72;4.55;;;;;;;;;;4998791;28;20036;-96
2023/04/21 07:26:30;;;;;;;6.68;4.25;;;;;;;;;;4998122;28;20025;-96
2023/04/21 07:29:02;;;;;;;6.95;3.83;;;;;;;;;;4998156;28;20537;-96
2023/04/21 07:31:28;;;;;;;;;;;;;;;;;;4998705;28;20025;-94
2023/04/21 07:33:54;;;;;;;7.90;4.85;;;;;;;;;;4998106;28;20295;-95
2023/04/21 07:36:20;;;;;;;5.32;4.00;;;;;;;;;;4998504;28;20037;-95
2023/04/21 07:38:49;;;;;;;6.60;4.22;;;;;;;;;;4998037;28;20026;-95
2023/04/21 07:41:15;;;;;;;6.50;4.35;;;;;;;;;;4998165;28;20044;-95
2023/04/21 07:43:41;;;;;;;8.20;4.63;;;;;;;;;;4998185;28;20487;-95
2023/04/21 07:46:15;;;;;;;6.45;4.13;;;;;;;;;;4998043;28;20033;-96
2023/04/21 07:48:45;;;;;;;5.90;4.22;;;;;;;;;;4998087;28;20384;-95
2023/04/21 07:51:11;;;;;;;7.05;4.32;;;;;;;;;;4997950;28;20022;-96
2023/04/21 07:53:44;;;;;;;6.63;4.32;;;;;;;;;;4997858;28;20026;-95
2023/04/21 07:56:13;;;;;;;7.82;5.00;;;;;;;;;;4997817;28;20026;-95
2023/04/21 07:58:42;;;;;;;6.68;5.18;;;;;;;;;;4997807;28;20080;-96
2023/04/21 08:01:11;;;;;;;6.80;4.35;;;;;;;;;;4997326;28;20026;-96
2023/04/21 08:03:37;;;;;;;10.95;5.97;;;;;;;;;;4997722;28;20547;-96
2023/04/21 08:06:03;;;;;;;7.68;4.90;;;;;;;;;;4997785;28;20050;-96
2023/04/21 08:08:32;;;;;;;7.38;4.68;;;;;;;;;;4997647;28;20029;-95
2023/04/21 08:11:01;;;;;;;7.13;4.47;;;;;;;;;;4997353;28;20047;-95
2023/04/21 08:13:27;;;;;;;7.78;4.40;;;;;;;;;;4997971;28;20025;-95
2023/04/21 08:15:54;;;;;;;6.20;4.32;;;;;;;;;;4997779;28;20037;-95
2023/04/21 08:18:22;;;;;;;6.75;4.10;;;;;;;;;;4997585;28;20049;-94
2023/04/21 08:20:51;;;;;;;7.07;4.32;;;;;;;;;;4998185;28;20029;-95
2023/04/21 08:23:22;;;;;;;7.88;4.55;;;;;;;;;;4997456;28;20048;-94
2023/04/21 08:25:48;;;;;;;6.90;5.00;;;;;;;;;;4997421;28;20061;-95
2023/04/21 08:28:14;;;;;;;11.07;4.65;;;;;;;;;;4997470;28;20037;-95
2023/04/21 08:30:41;;;;;;;9.05;5.22;;;;;;;;;;4997394;28;20484;-95
2023/04/21 08:33:14;;;;;;;6.45;4.63;;;;;;;;;;4997368;28;20476;-95
2023/04/21 08:35:41;;;;;;;10.18;5.03;;;;;;;;;;4997694;28;20091;-96
2023/04/21 08:38:12;;;;;;;5.88;3.85;;;;;;;;;;4997416;28;20026;-95
2023/04/21 08:40:41;;;;;;;8.60;4.00;;;;;;;;;;4997375;28;20054;-95
2023/04/21 08:43:10;;;;;;;7.47;3.90;;;;;;;;;;4997430;28;20026;-95
2023/04/21 08:45:36;;;;;;;10.57;4.97;;;;;;;;;;4997356;28;20113;-96
2023/04/21 08:48:06;;;;;;;8.80;4.78;;;;;;;;;;4997461;28;20033;-95
2023/04/21 08:50:33;;;;;;;10.30;5.70;;;;;;;;;;4997681;28;20018;-95
2023/04/21 08:53:02;;;;;;;7.15;4.55;;;;;;;;;;4997394;28;20378;-95
2023/04/21 08:55:32;;;;;;;7.78;4.95;;;;;;;;;;4997247;28;20026;-95
2023/04/21 08:58:03;;;;;;;7.88;5.13;;;;;;;;;;4996996;28;20041;-96
2023/04/21 09:00:31;;;;;;;7.47;5.03;;;;;;;;;;4997687;28;20046;-96
2023/04/21 09:03:01;;;;;;;8.88;5.78;;;;;;;;;;4997344;28;20053;-95
2023/04/21 09:05:36;;;;;;;9.10;5.50;;;;;;;;;;4997341;28;20083;-95
2023/04/21 09:08:31;;;;;;;10.30;5.10;;;;;;;;;;4997450;28;20029;-96
2023/04/21 09:11:01;;;;;;;6.75;4.82;;;;;;;;;;4997056;28;20049;-95
2023/04/21 09:13:33;;;;;;;9.70;5.53;;;;;;;;;;4997919;28;20026;-95
2023/04/21 09:16:00;;;;;;;8.73;4.93;;;;;;;;;;5000875;28;20468;-96
2023/04/21 09:18:35;;;;;;;8.35;5.45;;;;;;;;;;5000952;28;20074;-95
2023/04/21 09:21:11;;;;;;;11.00;6.07;;;;;;;;;;5001320;28;20079;-95
2023/04/21 09:23:43;;;;;;;11.93;5.43;;;;;;;;;;5000987;28;20022;-95
2023/04/21 09:26:12;;;;;;;11.35;6.22;;;;;;;;;;5000664;28;20422;-96
2023/04/21 09:28:42;;;;;;;7.25;5.00;;;;;;;;;;5000690;28;20034;-95
2023/04/21 09:31:21;;;;;;;8.52;5.18;;;;;;;;;;5000617;28;20041;-95
2023/04/21 09:33:51;;;;;;;7.93;5.45;;;;;;;;;;5001043;28;20022;-95
2023/04/21 09:36:21;;;;;;;9.48;4.60;;;;;;;;;;5001839;28;20026;-96
2023/04/21 09:38:51;;;;;;;8.25;4.68;;;;;;;;;;5001500;28;20531;-95
2023/04/21 09:41:25;;;;;;;9.48;4.28;;;;;;;;;;5001456;28;20057;-95
2023/04/21 09:43:53;;;;;;;7.85;4.00;;;;;;;;;;5000389;28;20026;-95
2023/04/21 09:46:22;;;;;;;9.90;4.70;;;;;;;;;;5000171;28;20491;-95
2023/04/21 09:48:50;;;;;;;5.93;4.10;;;;;;;;;;5000561;28;20026;-96
2023/04/21 09:51:17;;;;;;;7.05;4.47;;;;;;;;;;5000246;28;20034;-96
2023/04/21 09:53:44;;;;;;;8.57;4.63;;;;;;;;;;5000262;28;20030;-96
2023/04/21 09:56:12;;;;;;;7.18;4.85;;;;;;;;;;5000404;28;20026;-96
2023/04/21 09:58:52;;;;;;;7.47;4.35;;;;;;;;;;5000148;28;20030;-96
2023/04/21 10:01:27;;;;;;;5.85;3.60;;;;;;;;;;5000583;28;20029;-95
2023/04/21 10:03:53;;;;;;;7.07;3.85;;;;;;;;;;5000942;28;20487;-96
2023/04/21 10:06:22;;;;;;;8.45;3.70;;;;;;;;;;5000864;28;20042;-95
2023/04/21 10:09:02;;;;;;;11.85;4.65;;;;;;;;;;5000724;28;20542;-96
2023/04/21 10:11:35;;;;;;;8.65;3.95;;;;;;;;;;5000080;28;20057;-96
2023/04/21 10:14:02;;;;;;;5.90;3.80;;;;;;;;;;5000517;28;20029;-94
2023/04/21 10:16:28;;;;;;;10.23;3.88;;;;;;;;;;5000585;28;20476;-95
2023/04/21 10:18:54;;;;;;;10.38;4.00;;;;;;;;;;4999805;28;20049;-96
2023/04/21 10:21:23;;;;;;;13.48;4.38;;;;;;;;;;4999812;28;20025;-96
2023/04/21 10:23:53;;;;;;;8.77;3.97;;;;;;;;;;4999937;28;20120;-95
2023/04/21 10:26:23;;;;;;;9.05;3.63;;;;;;;;;;4999700;28;20527;-95
2023/04/21 10:29:06;;;;;;;8.10;4.22;;;;;;;;;;4999862;28;20026;-95
2023/04/21 10:31:33;;;;;;;7.63;3.83;;;;;;;;;;5003184;28;20030;-95
2023/04/21 10:34:14;;;;;;;9.98;4.15;;;;;;;;;;5005334;28;20030;-96
2023/04/21 10:37:11;;;;;;;9.90;4.22;;;;;;;;;;5006625;28;20026;-96
2023/04/21 10:39:35;;;;;;;7.28;3.28;;;;;;;;;;5019883;28;20087;-95
2023/04/21 10:42:13;;;;;;;8.98;4.10;;;;;;;;;;5005291;28;20504;-96
2023/04/21 10:44:43;;;;;;;7.38;3.22;;;;;;;;;;5006296;28;20527;-96
2023/04/21 10:47:12;;;;;;;11.13;3.83;;;;;;;;;;5006785;28;20080;-95
2023/04/21 10:49:52;;;;;;;6.70;3.72;;;;;;;;;;5005185;28;20030;-96
2023/04/21 10:52:33;;;;;;;5.90;3.60;;;;;;;;;;5005172;28;20030;-96
2023/04/21 10:55:02;;;;;;;13.70;3.83;;;;;;;;;;5006026;28;20030;-96
2023/04/21 10:57:43;;;;;;;7.57;3.65;;;;;;;;;;5006839;28;20034;-96
2023/04/21 11:00:33;;;;;;;9.77;4.00;;;;;;;;;;5005503;28;20030;-96
2023/04/21 11:03:03;;;;;;;7.97;3.42;;;;;;;;;;4995773;28;20030;-96
2023/04/21 11:05:45;;;;;;;8.80;3.67;;;;;;;;;;5007497;28;20472;-96
2023/04/21 11:08:11;;;;;;;;;;;;;;;;;;5006760;28;20084;-95
2023/04/21 11:10:53;;;;;;;12.15;3.22;;;;;;;;;;5004622;28;20351;-96
2023/04/21 11:13:34;;;;;;;11.48;4.05;;;;;;;;;;5007820;28;20026;-95
2023/04/21 11:16:04;;;;;;;5.95;3.53;;;;;;;;;;5007564;28;20026;-96
2023/04/21 11:18:42;;;;;;;7.47;3.58;;;;;;;;;;5006049;28;20033;-95
2023/04/21 11:21:12;;;;;;;7.40;3.60;;;;;;;;;;5006397;28;20050;-96
2023/04/21 11:23:55;;;;;;;9.90;3.80;;;;;;;;;;5003380;28;20026;-96
2023/04/21 11:26:33;;;;;;;9.00;4.82;;;;;;;;;;5005173;28;20060;-95
2023/04/21 11:29:05;;;;;;;9.38;4.10;;;;;;;;;;5003733;28;20033;-96
2023/04/21 11:31:34;;;;;;;8.30;4.03;;;;;;;;;;5002921;28;20022;-96
2023/04/21 11:34:14;;;;;;;7.82;3.90;;;;;;;;;;5003833;28;20109;-95
2023/04/21 11:36:43;;;;;;;8.57;3.55;;;;;;;;;;5002310;28;20029;-95
2023/04/21 11:39:14;;;;;;;9.65;4.63;;;;;;;;;;5003384;28;20025;-95
2023/04/21 11:41:44;;;;;;;8.27;3.93;;;;;;;;;;5002927;28;20053;-95
2023/04/21 11:44:13;;;;;;;5.28;4.00;;;;;;;;;;5002709;28;20022;-96
2023/04/21 11:46:52;;;;;;;12.93;5.10;;;;;;;;;;5002610;28;20435;-96
2023/04/21 11:49:24;;;;;;;8.20;4.25;;;;;;;;;;5003655;28;20034;-96
2023/04/21 11:51:52;;;;;;;9.18;3.65;;;;;;;;;;5003620;28;20026;-95
2023/04/21 11:54:23;;;;;;;6.75;4.43;;;;;;;;;;5002407;28;20050;-96
2023/04/21 11:57:05;;;;;;;7.95;4.40;;;;;;;;;;5003310;28;20104;-95
2023/04/21 11:59:32;;;;;;;6.88;3.83;;;;;;;;;;5001121;28;20030;-96
2023/04/21 12:02:06;;;;;;;4.63;3.42;;;;;;;;;;5004424;28;20029;-95
2023/04/21 12:04:33;;;;;;;6.30;3.50;;;;;;;;;;5005484;28;20022;-96
2023/04/21 12:07:14;;;;;;;11.25;4.43;;;;;;;;;;5004495;28;20022;-96
2023/04/21 12:09:42;;;;;;;9.48;3.90;;;;;;;;;;5005611;28;20022;-96
2023/04/21 12:12:23;;;;;;;10.15;3.70;;;;;;;;;;5003745;28;20058;-95
2023/04/21 12:15:02;;;;;;;7.43;3.53;;;;;;;;;;5003706;28;20033;-96
2023/04/21 12:17:34;;;;;;;6.30;2.95;;;;;;;;;;5003052;28;20030;-96
2023/04/21 12:20:04;;;;;;;;;;;;;;;;;;5004528;28;20041;-96
2023/04/21 12:22:33;;;;;;;5.07;3.30;;;;;;;;;;5004350;28;19909;-96
2023/04/21 12:25:02;;;;;;;7.25;3.53;;;;;;;;;;5002801;28;20030;-96
2023/04/21 12:27:35;;;;;;;3.53;2.75;;;;;;;;;;5002094;28;20053;-96
2023/04/21 12:30:04;;;;;;;7.07;3.92;;;;;;;;;;5004673;28;20032;-96
2023/04/21 12:32:33;;;;;;;5.82;3.55;;;;;;;;;;5004507;28;20092;-96
2023/04/21 12:35:04;;;;;;;4.82;3.25;;;;;;;;;;5002903;28;20026;-96
2023/04/21 12:37:32;;;;;;;6.30;3.33;;;;;;;;;;5004346;28;20018;-95
2023/04/21 12:40:06;;;;;;;8.38;4.05;;;;;;;;;;5004703;28;20032;-96
2023/04/21 12:42:33;;;;;;;6.47;3.40;;;;;;;;;;5005647;28;20022;-96
2023/04/21 12:45:12;;;;;;;4.80;3.63;;;;;;;;;;5002690;28;20026;-95
2023/04/21 12:47:42;;;;;;;9.90;3.85;;;;;;;;;;5003648;28;20033;-96
2023/04/21 12:50:13;;;;;;;5.53;3.58;;;;;;;;;;5008508;28;20026;-96
2023/04/21 12:52:53;;;;;;;6.47;4.00;;;;;;;;;;5008042;28;20468;-96
2023/04/21 12:55:23;;;;;;;6.80;3.60;;;;;;;;;;5004384;28;20029;-96
2023/04/21 12:57:52;;;;;;;7.53;4.75;;;;;;;;;;5004158;28;20168;-96
2023/04/21 13:00:23;;;;;;;4.13;3.35;;;;;;;;;;5004011;28;20029;-96
2023/04/21 13:03:04;;;;;;;7.85;4.25;;;;;;;;;;5005216;28;20022;-96
2023/04/21 13:05:33;;;;;;;5.15;3.55;;;;;;;;;;5005606;28;20030;-96
2023/04/21 13:08:02;;;;;;;6.20;3.90;;;;;;;;;;5005733;28;20033;-96
2023/04/21 13:10:35;;;;;;;7.43;4.20;;;;;;;;;;5005689;28;20029;-96
2023/04/21 13:13:04;;;;;;;7.03;3.90;;;;;;;;;;5005347;28;20050;-96
2023/04/21 13:15:32;;;;;;;8.68;3.95;;;;;;;;;;5006179;28;20028;-96
2023/04/21 13:18:14;;;;;;;8.02;4.28;;;;;;;;;;5005570;28;20026;-96
2023/04/21 13:20:56;;;;;;;7.15;3.70;;;;;;;;;;5005395;28;20132;-96
2023/04/21 13:23:25;;;;;;;5.65;3.63;;;;;;;;;;5005425;28;20060;-96
2023/04/21 13:25:51;;;;;;;6.72;4.13;;;;;;;;;;5005305;28;20022;-96
2023/04/21 13:28:25;;;;;;;5.97;4.22;;;;;;;;;;5004607;28;20029;-96
2023/04/21 13:30:54;;;;;;;8.13;4.22;;;;;;;;;;5008121;28;20076;-95
2023/04/21 13:33:23;;;;;;;7.53;4.13;;;;;;;;;;5007318;28;20426;-96
2023/04/21 13:36:04;;;;;;;6.85;4.38;;;;;;;;;;5006293;28;20030;-96
2023/04/21 13:38:33;;;;;;;9.13;4.50;;;;;;;;;;5005472;28;20034;-96
2023/04/21 13:41:15;;;;;;;4.88;3.97;;;;;;;;;;5004213;28;20026;-96
2023/04/21 13:43:44;;;;;;;8.43;4.88;;;;;;;;;;5006261;28;20018;-96
2023/04/21 13:46:13;;;;;;;10.93;4.85;;;;;;;;;;5007144;28;20472;-96
2023/04/21 13:48:42;;;;;;;10.80;4.78;;;;;;;;;;5007342;28;20029;-95
2023/04/21 13:51:16;;;;;;;11.63;4.90;;;;;;;;;;5006676;28;20037;-96
2023/04/21 13:53:44;;;;;;;6.57;3.95;;;;;;;;;;5007819;28;20137;-96
2023/04/21 13:56:14;;;;;;;5.78;4.00;;;;;;;;;;5008795;28;20026;-96
2023/04/21 13:58:44;;;;;;;8.88;4.00;;;;;;;;;;5006480;28;20030;-96
2023/04/21 14:01:13;;;;;;;7.72;4.47;;;;;;;;;;5007754;28;20468;-96
2023/04/21 14:03:55;;;;;;;7.88;4.50;;;;;;;;;;5007633;28;20053;-96
2023/04/21 14:06:21;;;;;;;;;;;;;;;;;;5008457;28;20079;-96
2023/04/21 14:08:55;;;;;;;6.97;4.28;;;;;;;;;;5005669;28;19906;-96
2023/04/21 14:11:24;;;;;;;9.07;4.10;;;;;;;;;;5004062;28;20392;-96
2023/04/21 14:13:53;;;;;;;6.38;3.97;;;;;;;;;;5004536;28;20034;-96
2023/04/21 14:16:23;;;;;;;9.25;3.90;;;;;;;;;;5004439;28;20037;-96
2023/04/21 14:19:04;;;;;;;5.40;4.10;;;;;;;;;;5004983;28;20080;-96
2023/04/21 14:21:33;;;;;;;5.32;3.92;;;;;;;;;;5006136;28;20029;-96
2023/04/21 14:24:02;;;;;;;6.43;4.07;;;;;;;;;;5004090;28;20018;-96
2023/04/21 14:26:36;;;;;;;5.55;4.18;;;;;;;;;;5005042;28;20026;-96
2023/04/21 14:29:05;;;;;;;8.80;4.13;;;;;;;;;;5003835;28;20026;-95
2023/04/21 14:31:33;;;;;;;7.57;4.28;;;;;;;;;;5004156;28;20030;-96
2023/04/21 14:34:03;;;;;;;6.28;4.32;;;;;;;;;;5004825;28;20022;-96
2023/04/21 14:36:36;;;;;;;8.68;4.97;;;;;;;;;;5004284;28;20026;-96
2023/04/21 14:39:03;;;;;;;5.18;3.95;;;;;;;;;;5003485;28;20365;-96
2023/04/21 14:41:32;;;;;;;6.95;4.43;;;;;;;;;;5002904;28;20480;-96
2023/04/21 14:44:02;;;;;;;5.55;4.57;;;;;;;;;;5006319;28;20472;-96
2023/04/21 14:46:37;;;;;;;5.75;4.30;;;;;;;;;;5006185;28;20017;-96
2023/04/21 14:49:04;;;;;;;8.23;4.30;;;;;;;;;;5004093;28;20049;-96
2023/04/21 14:51:32;;;;;;;6.32;4.68;;;;;;;;;;5002886;28;20026;-96
2023/04/21 14:54:22;;;;;;;4.43;3.70;;;;;;;;;;5002381;28;20072;-96
2023/04/21 14:56:45;;;;;;;5.60;3.95;;;;;;;;;;5020032;28;20037;-96